createdAt,value
2018-07-17T00:00:58.295Z,20.30
2018-07-17T00:05:54.352Z,20.20
2018-07-17T00:08:22.470Z,20.20
2018-07-17T00:10:50.593Z,20.20
2018-07-17T00:13:18.706Z,20.20
2018-07-17T00:15:46.818Z,20.20
2018-07-17T00:20:42.806Z,20.00
2018-07-17T00:23:10.918Z,20.00
2018-07-17T00:28:06.920Z,19.90
2018-07-17T00:30:35.106Z,20.00
2018-07-17T00:33:03.238Z,19.90
2018-07-17T00:35:31.347Z,19.80
2018-07-17T00:37:59.475Z,19.80
2018-07-17T00:40:27.591Z,19.80
2018-07-17T00:42:55.722Z,19.80
2018-07-17T00:45:23.827Z,19.70
2018-07-17T00:47:51.977Z,19.70
2018-07-17T00:50:20.065Z,19.60
2018-07-17T00:52:48.179Z,19.60
2018-07-17T00:57:44.503Z,19.60
2018-07-17T01:00:12.642Z,19.60
2018-07-17T01:02:46.206Z,19.50
2018-07-17T01:10:26.578Z,19.50
2018-07-17T01:12:53.999Z,19.60
2018-07-17T01:15:25.767Z,19.60
2018-07-17T01:17:53.884Z,19.60
2018-07-17T01:20:21.990Z,19.50
2018-07-17T01:22:50.102Z,19.50
2018-07-17T01:25:18.217Z,19.40
2018-07-17T01:27:46.341Z,19.40
2018-07-17T01:30:14.452Z,19.40
2018-07-17T01:32:42.555Z,19.30
2018-07-17T01:35:10.675Z,19.30
2018-07-17T01:40:06.721Z,19.30
2018-07-17T01:45:02.804Z,19.10
2018-07-17T01:47:30.940Z,19.10
2018-07-17T01:49:59.076Z,19.10
2018-07-17T01:52:27.199Z,19.10
2018-07-17T01:54:55.341Z,19.10
2018-07-17T01:59:51.367Z,19.00
2018-07-17T02:02:19.495Z,19.00
2018-07-17T02:04:47.723Z,19.00
2018-07-17T02:07:15.849Z,19.00
2018-07-17T02:09:43.992Z,19.00
2018-07-17T02:12:12.102Z,19.00
2018-07-17T02:14:40.236Z,19.00
2018-07-17T02:17:08.371Z,18.90
2018-07-17T02:19:36.506Z,18.90
2018-07-17T02:22:04.628Z,18.90
2018-07-17T02:27:00.842Z,18.90
2018-07-17T02:29:28.955Z,18.80
2018-07-17T02:31:57.081Z,18.80
2018-07-17T02:34:25.232Z,18.70
2018-07-17T02:36:53.349Z,18.70
2018-07-17T02:39:21.488Z,18.70
2018-07-17T02:41:49.621Z,18.70
2018-07-17T02:46:45.688Z,18.60
2018-07-17T02:49:13.809Z,18.60
2018-07-17T02:51:41.932Z,18.50
2018-07-17T02:54:10.072Z,18.50
2018-07-17T02:59:06.108Z,18.50
2018-07-17T03:04:02.201Z,18.40
2018-07-17T03:06:30.364Z,18.30
2018-07-17T03:08:58.502Z,18.40
2018-07-17T03:13:54.526Z,18.30
2018-07-17T03:16:22.642Z,18.30
2018-07-17T03:18:50.777Z,18.30
2018-07-17T03:21:18.907Z,18.30
2018-07-17T03:23:47.050Z,18.30
2018-07-17T03:26:15.189Z,18.40
2018-07-17T03:28:43.298Z,18.40
2018-07-17T03:31:11.429Z,18.40
2018-07-17T03:33:39.541Z,18.40
2018-07-17T03:36:07.684Z,18.40
2018-07-17T03:38:36.040Z,18.50
2018-07-17T03:41:04.178Z,18.50
2018-07-17T03:43:32.298Z,18.50
2018-07-17T03:48:28.330Z,18.50
2018-07-17T03:50:56.496Z,18.50
2018-07-17T03:53:24.620Z,18.60
2018-07-17T03:55:52.759Z,18.60
2018-07-17T04:00:49.025Z,18.60
2018-07-17T04:03:17.164Z,18.60
2018-07-17T04:05:45.317Z,18.60
2018-07-17T04:08:13.434Z,18.70
2018-07-17T04:10:41.580Z,18.70
2018-07-17T04:13:09.713Z,18.70
2018-07-17T04:15:37.860Z,18.70
2018-07-17T04:18:06.019Z,18.70
2018-07-17T04:23:02.238Z,18.80
2018-07-17T04:25:30.373Z,18.80
2018-07-17T04:27:58.495Z,18.80
2018-07-17T04:32:54.523Z,18.80
2018-07-17T04:35:22.661Z,18.90
2018-07-17T04:37:50.877Z,18.90
2018-07-17T04:40:19.011Z,18.90
2018-07-17T04:42:47.126Z,18.90
2018-07-17T04:45:15.252Z,18.90
2018-07-17T04:47:43.381Z,18.90
2018-07-17T04:55:07.537Z,18.90
2018-07-17T04:57:35.645Z,19.00
2018-07-17T05:00:03.831Z,19.00
2018-07-17T05:02:31.962Z,19.00
2018-07-17T05:05:00.089Z,19.00
2018-07-17T05:12:24.236Z,19.20
2018-07-17T05:14:52.361Z,19.20
2018-07-17T05:17:20.485Z,19.30
2018-07-17T05:19:48.608Z,19.40
2018-07-17T05:22:16.735Z,19.40
2018-07-17T05:24:45.271Z,19.50
2018-07-17T05:29:41.302Z,19.50
2018-07-17T05:34:37.352Z,19.60
2018-07-17T05:39:33.336Z,19.60
2018-07-17T05:42:01.476Z,19.50
2018-07-17T05:44:29.600Z,19.50
2018-07-17T05:46:57.739Z,19.50
2018-07-17T05:49:25.966Z,19.60
2018-07-17T05:51:54.148Z,19.70
2018-07-17T05:54:22.195Z,19.70
2018-07-17T05:56:50.355Z,19.80
2018-07-17T05:59:18.488Z,19.80
2018-07-17T06:01:46.618Z,19.80
2018-07-17T06:04:14.769Z,19.80
2018-07-17T06:06:42.892Z,19.90
2018-07-17T06:11:39.631Z,20.10
2018-07-17T06:14:07.759Z,20.30
2018-07-17T06:16:35.879Z,20.40
2018-07-17T06:19:04.068Z,20.50
2018-07-17T06:21:32.125Z,20.70
2018-07-17T06:24:00.245Z,20.80
2018-07-17T06:26:28.400Z,21.00
2018-07-17T06:28:56.839Z,21.10
2018-07-17T06:31:24.984Z,21.20
2018-07-17T06:33:53.101Z,21.30
2018-07-17T06:41:17.159Z,21.60
2018-07-17T06:43:45.256Z,21.80
2018-07-17T06:46:13.440Z,22.00
2018-07-17T06:48:41.573Z,22.20
2018-07-17T06:51:09.713Z,22.30
2018-07-17T06:56:05.791Z,22.70
2018-07-17T06:58:33.963Z,22.80
2018-07-17T07:01:02.117Z,22.90
2018-07-17T07:03:30.240Z,22.90
2018-07-17T07:05:58.384Z,22.90
2018-07-17T07:08:26.496Z,22.90
2018-07-17T07:10:54.677Z,22.80
2018-07-17T07:13:22.792Z,22.80
2018-07-17T07:15:50.915Z,22.80
2018-07-17T07:18:19.048Z,22.90
2018-07-17T07:20:47.160Z,23.10
2018-07-17T07:23:15.307Z,23.40
2018-07-17T07:25:43.405Z,23.60
2018-07-17T07:28:11.546Z,23.80
2018-07-17T07:30:39.676Z,24.00
2018-07-17T07:33:07.818Z,24.20
2018-07-17T07:35:35.953Z,24.40
2018-07-17T07:38:04.080Z,24.60
2018-07-17T07:40:32.201Z,25.00
2018-07-17T07:43:00.337Z,25.20
2018-07-17T07:47:56.660Z,25.70
2018-07-17T07:50:25.228Z,25.80
2018-07-17T07:52:53.662Z,25.90
2018-07-17T07:55:21.754Z,26.00
2018-07-17T07:57:50.377Z,26.20
2018-07-17T08:00:18.528Z,26.40
2018-07-17T08:02:46.659Z,26.50
2018-07-17T08:05:14.791Z,26.60
2018-07-17T08:07:42.913Z,26.40
2018-07-17T08:10:11.036Z,26.30
2018-07-17T08:12:39.184Z,26.00
2018-07-17T08:15:07.349Z,25.80
2018-07-17T08:17:35.484Z,25.70
2018-07-17T08:20:03.605Z,25.60
2018-07-17T08:22:31.733Z,25.70
2018-07-17T08:24:59.856Z,25.70
2018-07-17T08:27:27.991Z,25.70
2018-07-17T08:29:56.127Z,25.70
2018-07-17T08:32:24.338Z,25.80
2018-07-17T08:34:52.443Z,25.80
2018-07-17T08:37:20.577Z,25.90
2018-07-17T08:39:48.681Z,26.10
2018-07-17T08:42:16.972Z,26.20
2018-07-17T08:44:45.119Z,26.30
2018-07-17T08:47:13.258Z,26.10
2018-07-17T08:49:41.385Z,26.10
2018-07-17T08:52:09.512Z,26.10
2018-07-17T08:54:37.757Z,26.10
2018-07-17T08:57:05.801Z,26.00
2018-07-17T08:59:33.914Z,26.10
2018-07-17T09:02:02.026Z,26.20
2018-07-17T09:04:30.156Z,26.20
2018-07-17T09:06:58.314Z,26.20
2018-07-17T09:09:26.471Z,26.20
2018-07-17T09:11:54.629Z,26.20
2018-07-17T09:14:23.015Z,26.30
2018-07-17T09:16:51.156Z,26.40
2018-07-17T09:19:19.293Z,26.50
2018-07-17T09:21:47.430Z,26.50
2018-07-17T09:24:15.556Z,26.50
2018-07-17T09:26:43.668Z,26.50
2018-07-17T09:29:11.815Z,26.50
2018-07-17T09:31:39.934Z,26.70
2018-07-17T09:36:35.968Z,27.00
2018-07-17T09:39:05.319Z,26.90
2018-07-17T09:41:33.342Z,27.00
2018-07-17T09:48:57.375Z,27.40
2018-07-17T09:51:25.505Z,27.60
2018-07-17T09:53:53.656Z,27.80
2018-07-17T09:56:21.784Z,28.10
2018-07-17T09:58:50.061Z,28.20
2018-07-17T10:01:23.627Z,28.30
2018-07-17T10:03:51.758Z,28.20
2018-07-17T10:06:19.888Z,28.00
2018-07-17T10:08:48.012Z,27.90
2018-07-17T10:11:16.135Z,27.70
2018-07-17T10:16:12.149Z,27.50
2018-07-17T10:18:40.282Z,27.50
2018-07-17T10:21:08.395Z,27.90
2018-07-17T10:23:36.544Z,28.40
2018-07-17T10:26:04.683Z,28.70
2018-07-17T10:28:32.816Z,28.50
2018-07-17T10:31:00.942Z,28.70
2018-07-17T10:33:29.110Z,29.00
2018-07-17T10:35:57.210Z,29.10
2018-07-17T10:38:25.340Z,29.30
2018-07-17T10:40:53.448Z,29.50
2018-07-17T10:43:21.580Z,29.20
2018-07-17T10:45:49.715Z,29.20
2018-07-17T10:48:17.852Z,29.20
2018-07-17T10:50:45.988Z,29.00
2018-07-17T10:53:14.116Z,29.10
2018-07-17T10:55:42.267Z,29.20
2018-07-17T10:58:10.488Z,29.40
2018-07-17T11:05:34.722Z,29.50
2018-07-17T11:08:02.844Z,29.60
2018-07-17T11:10:30.975Z,29.50
2018-07-17T11:12:59.158Z,29.60
2018-07-17T11:15:27.280Z,29.70
2018-07-17T11:20:23.461Z,30.20
2018-07-17T11:22:51.573Z,30.50
2018-07-17T11:25:19.711Z,30.50
2018-07-17T11:27:47.824Z,30.40
2018-07-17T11:30:15.951Z,30.30
2018-07-17T11:32:44.084Z,30.20
2018-07-17T11:35:12.227Z,30.50
2018-07-17T11:37:40.340Z,30.70
2018-07-17T11:42:36.564Z,31.00
2018-07-17T11:45:04.695Z,30.70
2018-07-17T11:47:32.808Z,30.50
2018-07-17T11:50:00.928Z,30.60
2018-07-17T11:52:29.060Z,30.70
2018-07-17T11:54:57.188Z,30.80
2018-07-17T11:57:25.321Z,31.10
2018-07-17T11:59:53.452Z,31.50
2018-07-17T12:02:21.584Z,31.70
2018-07-17T12:04:49.711Z,31.70
2018-07-17T12:07:17.935Z,31.80
2018-07-17T12:09:46.043Z,31.80
2018-07-17T12:12:14.151Z,31.60
2018-07-17T12:14:42.285Z,31.20
2018-07-17T12:17:10.449Z,30.90
2018-07-17T12:19:38.586Z,30.90
2018-07-17T12:22:06.804Z,30.60
2018-07-17T12:24:34.960Z,30.40
2018-07-17T12:27:03.080Z,30.20
2018-07-17T12:29:31.213Z,30.20
2018-07-17T12:31:59.339Z,30.10
2018-07-17T12:34:27.463Z,30.10
2018-07-17T12:36:55.588Z,30.10
2018-07-17T12:39:23.717Z,29.90
2018-07-17T12:41:51.862Z,29.70
2018-07-17T12:44:20.168Z,29.60
2018-07-17T12:46:48.192Z,29.60
2018-07-17T12:49:16.315Z,29.60
2018-07-17T12:54:12.340Z,30.00
2018-07-17T12:56:40.490Z,30.20
2018-07-17T12:59:08.622Z,30.60
2018-07-17T13:01:36.736Z,30.60
2018-07-17T13:04:04.849Z,30.50
2018-07-17T13:06:32.989Z,30.10
2018-07-17T13:09:01.103Z,29.90
2018-07-17T13:11:29.228Z,29.70
2018-07-17T13:13:57.369Z,29.70
2018-07-17T13:16:25.509Z,29.60
2018-07-17T13:21:21.535Z,29.60
2018-07-17T13:26:17.551Z,29.80
2018-07-17T13:28:45.692Z,29.70
2018-07-17T13:31:13.840Z,29.50
2018-07-17T13:33:41.961Z,29.20
2018-07-17T13:36:10.105Z,28.80
2018-07-17T13:38:38.252Z,28.30
2018-07-17T13:41:06.533Z,27.70
2018-07-17T13:43:34.659Z,27.30
2018-07-17T13:46:02.798Z,27.00
2018-07-17T13:48:30.910Z,26.60
2018-07-17T13:50:59.041Z,26.40
2018-07-17T13:53:27.172Z,26.20
2018-07-17T14:00:51.212Z,25.70
2018-07-17T14:03:19.340Z,25.70
2018-07-17T14:05:47.480Z,25.70
2018-07-17T14:08:15.595Z,25.70
2018-07-17T14:13:11.920Z,26.10
2018-07-17T14:15:40.052Z,26.10
2018-07-17T14:18:08.177Z,26.10
2018-07-17T14:20:36.552Z,26.10
2018-07-17T14:23:04.779Z,26.10
2018-07-17T14:25:32.889Z,26.10
2018-07-17T14:28:01.167Z,26.00
2018-07-17T14:30:29.317Z,25.80
2018-07-17T14:32:57.492Z,25.80
2018-07-17T14:35:26.460Z,25.80
2018-07-17T14:37:54.592Z,25.90
2018-07-17T14:42:50.630Z,27.10
2018-07-17T14:47:46.633Z,27.40
2018-07-17T14:50:14.760Z,27.30
2018-07-17T14:52:42.904Z,27.60
2018-07-17T14:55:11.688Z,28.40
2018-07-17T14:57:41.222Z,29.80
2018-07-17T15:00:11.026Z,31.30
2018-07-17T15:02:40.039Z,33.00
2018-07-17T15:05:09.818Z,34.10
2018-07-17T15:07:38.033Z,34.90
2018-07-17T15:10:06.656Z,35.40
2018-07-17T15:12:35.652Z,34.90
2018-07-17T15:15:05.232Z,34.10
2018-07-17T15:17:34.260Z,32.90
2018-07-17T15:20:02.935Z,31.80
2018-07-17T15:29:57.377Z,29.30
2018-07-17T15:34:54.774Z,28.70
2018-07-17T15:37:23.804Z,28.50
2018-07-17T15:39:52.409Z,28.30
2018-07-17T15:42:20.552Z,28.20
2018-07-17T15:44:48.676Z,28.10
2018-07-17T15:49:45.205Z,27.90
2018-07-17T15:52:13.981Z,27.80
2018-07-17T15:54:42.123Z,27.90
2018-07-17T15:57:10.296Z,28.10
2018-07-17T15:59:38.411Z,28.40
2018-07-17T16:02:06.855Z,28.50
2018-07-17T16:04:34.970Z,28.50
2018-07-17T16:07:03.785Z,28.60
2018-07-17T16:09:32.409Z,28.60
2018-07-17T16:12:00.905Z,28.50
2018-07-17T16:14:29.197Z,28.40
2018-07-17T16:16:57.164Z,28.40
2018-07-17T16:19:25.290Z,28.40
2018-07-17T16:21:53.409Z,28.30
2018-07-17T16:24:22.360Z,28.20
2018-07-17T16:26:50.484Z,28.10
2018-07-17T16:34:14.641Z,27.80
2018-07-17T16:36:42.843Z,27.50
2018-07-17T16:39:10.966Z,26.70
2018-07-17T16:41:39.888Z,26.00
2018-07-17T16:44:08.024Z,25.50
2018-07-17T16:46:36.181Z,25.20
2018-07-17T16:51:32.204Z,24.50
2018-07-17T16:56:28.331Z,23.00
2018-07-17T16:58:56.538Z,22.20
2018-07-17T17:03:53.733Z,21.00
2018-07-17T17:06:22.690Z,20.50
2018-07-17T17:13:47.751Z,20.00
2018-07-17T17:16:15.883Z,19.90
2018-07-17T17:21:12.518Z,20.10
2018-07-17T17:26:08.971Z,20.20
2018-07-17T17:28:37.100Z,20.30
2018-07-17T17:31:05.218Z,20.40
2018-07-17T17:33:33.359Z,20.40
2018-07-17T17:36:01.496Z,20.40
2018-07-17T17:38:29.641Z,20.40
2018-07-17T17:43:25.759Z,20.40
2018-07-17T17:45:53.906Z,20.50
2018-07-17T17:48:22.050Z,20.50
2018-07-17T17:50:50.162Z,20.50
2018-07-17T17:53:18.306Z,20.50
2018-07-17T17:55:46.439Z,20.50
2018-07-17T18:00:42.580Z,20.60
2018-07-17T18:03:10.767Z,20.60
2018-07-17T18:08:06.776Z,20.60
2018-07-17T18:10:34.928Z,20.60
2018-07-17T18:13:03.089Z,20.60
2018-07-17T18:15:31.202Z,20.60
2018-07-17T18:17:59.848Z,20.60
2018-07-17T18:20:28.326Z,20.60
2018-07-17T18:22:56.461Z,20.60
2018-07-17T18:27:52.537Z,20.50
2018-07-17T18:30:20.668Z,20.50
2018-07-17T18:35:16.765Z,20.50
2018-07-17T18:37:44.904Z,20.50
2018-07-17T18:40:13.034Z,20.50
2018-07-17T18:42:41.172Z,20.40
2018-07-17T18:45:09.302Z,20.40
2018-07-17T18:50:12.861Z,20.40
2018-07-17T18:55:01.590Z,20.30
2018-07-17T18:59:57.633Z,20.20
2018-07-17T19:04:53.655Z,20.30
2018-07-17T19:09:49.676Z,20.20
2018-07-17T19:12:17.889Z,20.20
2018-07-17T19:14:45.952Z,20.10
2018-07-17T19:19:42.064Z,20.00
2018-07-17T19:22:10.220Z,20.00
2018-07-17T19:24:38.381Z,19.90
2018-07-17T19:27:06.765Z,20.00
2018-07-17T19:29:34.898Z,19.90
2018-07-17T19:34:31.618Z,19.90
2018-07-17T19:36:59.814Z,19.80
2018-07-17T19:39:28.030Z,19.80
2018-07-17T19:41:56.236Z,19.70
2018-07-17T19:44:24.370Z,19.60
2018-07-17T19:46:52.504Z,19.60
2018-07-17T19:54:16.601Z,19.50
2018-07-17T19:56:44.735Z,19.40
2018-07-17T19:59:12.919Z,19.40
2018-07-17T20:01:41.040Z,19.30
2018-07-17T20:09:06.700Z,19.20
2018-07-17T20:14:02.804Z,19.20
2018-07-17T20:16:30.937Z,19.20
2018-07-17T20:18:59.115Z,19.20
2018-07-17T20:21:27.213Z,19.10
2018-07-17T20:23:55.387Z,19.10
2018-07-17T20:26:23.537Z,19.00
2018-07-17T20:28:51.876Z,19.00
2018-07-17T20:33:48.237Z,19.00
2018-07-17T20:36:16.328Z,18.90
2018-07-17T20:38:44.556Z,18.90
2018-07-17T20:41:12.688Z,18.90
2018-07-17T20:43:40.820Z,18.90
2018-07-17T20:48:36.892Z,18.80
2018-07-17T20:51:05.098Z,18.80
2018-07-17T20:53:33.224Z,18.70
2018-07-17T20:56:01.385Z,18.70
2018-07-17T20:58:29.499Z,18.70
2018-07-17T21:00:57.648Z,18.70
2018-07-17T21:03:25.769Z,18.70
2018-07-17T21:05:53.906Z,18.70
2018-07-17T21:08:22.037Z,18.80
2018-07-17T21:13:18.197Z,18.70
2018-07-17T21:15:46.276Z,18.70
2018-07-17T21:18:14.400Z,18.60
2018-07-17T21:20:42.538Z,18.60
2018-07-17T21:23:10.665Z,18.60
2018-07-17T21:33:03.145Z,18.30
2018-07-17T21:35:31.268Z,18.30
2018-07-17T21:37:59.384Z,18.30
2018-07-17T21:40:27.528Z,18.20
2018-07-17T21:42:55.660Z,18.20
2018-07-17T21:45:23.797Z,18.10
2018-07-17T21:47:51.931Z,18.10
2018-07-17T21:50:20.056Z,18.10
2018-07-17T21:52:48.184Z,18.00
2018-07-17T21:55:16.392Z,18.00
2018-07-17T21:57:44.552Z,18.00
2018-07-17T22:00:12.690Z,18.00
2018-07-17T22:02:40.805Z,18.00
2018-07-17T22:05:08.965Z,18.00
2018-07-17T22:07:37.089Z,17.90
2018-07-17T22:10:05.233Z,17.90
2018-07-17T22:12:33.368Z,17.90
2018-07-17T22:15:01.545Z,17.90
2018-07-17T22:17:29.675Z,17.80
2018-07-17T22:22:25.703Z,17.80
2018-07-17T22:24:53.803Z,17.70
2018-07-17T22:27:21.969Z,17.70
2018-07-17T22:32:18.064Z,17.70
2018-07-17T22:34:46.195Z,17.70
2018-07-17T22:37:14.437Z,17.70
2018-07-17T22:39:42.452Z,17.70
2018-07-17T22:42:10.583Z,17.70
2018-07-17T22:47:06.603Z,17.70
2018-07-17T22:49:34.736Z,17.70
2018-07-17T22:52:02.910Z,17.60
2018-07-17T22:54:31.025Z,17.60
2018-07-17T22:56:59.259Z,17.60
2018-07-17T22:59:27.372Z,17.60
2018-07-17T23:01:55.509Z,17.60
2018-07-17T23:04:23.623Z,17.60
2018-07-17T23:06:51.765Z,17.50
2018-07-17T23:09:19.912Z,17.50
2018-07-17T23:11:48.073Z,17.50
2018-07-17T23:14:16.211Z,17.50
2018-07-17T23:16:44.348Z,17.50
2018-07-17T23:19:12.458Z,17.50
2018-07-17T23:21:40.587Z,17.50
2018-07-17T23:24:08.695Z,17.40
2018-07-17T23:26:36.836Z,17.40
2018-07-17T23:29:04.973Z,17.40
2018-07-17T23:34:01.000Z,17.30
2018-07-17T23:36:29.149Z,17.40
2018-07-17T23:38:57.318Z,17.30
2018-07-17T23:41:25.488Z,17.30
2018-07-17T23:43:53.605Z,17.30
2018-07-17T23:46:21.785Z,17.30
2018-07-17T23:48:49.883Z,17.20
2018-07-17T23:51:18.030Z,17.10
2018-07-17T23:53:46.145Z,17.10
2018-07-17T23:56:14.300Z,17.10
2018-07-17T23:58:42.442Z,17.10
